createdAt,value
2023-01-18T00:02:33.869Z,26.40
2023-01-18T00:05:10.792Z,26.40
2023-01-18T00:07:49.252Z,26.40
2023-01-18T00:10:25.722Z,26.40
2023-01-18T00:13:02.388Z,26.30
2023-01-18T00:15:37.983Z,26.40
2023-01-18T00:18:14.415Z,26.50
2023-01-18T01:22:36.603Z,26.40
2023-01-18T01:25:28.548Z,26.60
2023-01-18T01:28:06.147Z,26.70
2023-01-18T01:30:41.748Z,26.70
2023-01-18T01:33:19.761Z,26.80
2023-01-18T01:35:59.124Z,26.80
2023-01-18T01:38:35.531Z,26.90
2023-01-18T01:41:13.089Z,26.80
2023-01-18T01:43:53.452Z,26.90
2023-01-18T01:46:38.855Z,27.00
2023-01-18T01:49:16.988Z,27.00
2023-01-18T01:51:55.499Z,27.00
2023-01-18T01:54:35.262Z,27.00
2023-01-18T01:57:15.195Z,26.90
2023-01-18T01:59:58.463Z,26.90
2023-01-18T02:05:15.216Z,26.60
2023-01-18T03:44:37.907Z,26.80
2023-01-18T03:47:13.864Z,26.90
2023-01-18T05:20:53.206Z,26.10
2023-01-18T05:23:31.432Z,26.20
2023-01-18T05:26:15.228Z,26.20
2023-01-18T05:59:57.757Z,26.00
2023-01-18T06:02:33.830Z,26.10
2023-01-18T06:05:10.188Z,26.10
2023-01-18T06:07:46.214Z,26.10
2023-01-18T06:10:24.039Z,26.10
2023-01-18T06:12:59.521Z,26.10
2023-01-18T06:18:12.445Z,25.90
2023-01-18T06:28:36.143Z,25.80
2023-01-18T06:31:13.282Z,25.80
2023-01-18T06:59:50.487Z,25.60
2023-01-18T07:02:25.935Z,25.80
2023-01-18T07:05:01.817Z,25.70
2023-01-18T07:07:38.269Z,25.70
2023-01-18T10:20:59.624Z,24.60
2023-01-18T10:23:41.349Z,24.50
2023-01-18T10:26:22.093Z,24.40
2023-01-18T10:29:06.229Z,24.30
2023-01-18T10:31:50.039Z,24.30
2023-01-18T10:34:27.223Z,24.20
2023-01-18T10:37:14.247Z,24.10
2023-01-18T10:40:02.092Z,24.00
2023-01-18T10:42:49.639Z,24.00
2023-01-18T10:45:31.606Z,23.90
2023-01-18T10:48:33.435Z,23.80
2023-01-18T10:51:13.984Z,23.80
2023-01-18T10:53:51.487Z,23.80
2023-01-18T10:56:29.320Z,23.80
2023-01-18T10:59:05.681Z,23.80
2023-01-18T11:01:55.257Z,23.80
2023-01-18T11:04:33.834Z,23.70
2023-01-18T11:07:10.030Z,23.70
2023-01-18T11:09:51.732Z,23.60
2023-01-18T11:12:45.103Z,23.60
2023-01-18T11:15:34.256Z,23.60
2023-01-18T11:18:13.694Z,23.60
2023-01-18T11:20:57.356Z,23.60
2023-01-18T11:23:39.179Z,23.60
2023-01-18T11:26:21.300Z,23.70
2023-01-18T11:29:03.627Z,23.70
2023-01-18T11:31:50.103Z,23.70
2023-01-18T11:34:32.102Z,23.70
2023-01-18T11:37:08.264Z,23.70
2023-01-18T11:39:45.510Z,23.70
2023-01-18T11:42:42.375Z,23.60
2023-01-18T11:45:27.214Z,23.80
2023-01-18T11:48:12.353Z,23.80
2023-01-18T11:50:49.753Z,23.80
2023-01-18T11:53:37.708Z,23.70
2023-01-18T11:56:18.705Z,23.70
2023-01-18T11:58:55.918Z,23.80
2023-01-18T12:02:02.440Z,23.80
2023-01-18T12:04:49.832Z,23.80
2023-01-18T12:07:36.547Z,23.90
2023-01-18T12:10:17.008Z,23.80
2023-01-18T12:13:15.326Z,23.70
2023-01-18T12:16:04.853Z,23.70
2023-01-18T12:19:03.142Z,23.70
2023-01-18T12:21:48.023Z,23.70
2023-01-18T12:24:37.675Z,23.70
2023-01-18T12:27:19.323Z,23.70
2023-01-18T12:30:17.701Z,23.70
2023-01-18T12:33:09.238Z,23.80
2023-01-18T12:36:08.588Z,23.70
2023-01-18T12:38:53.220Z,23.80
2023-01-18T12:41:50.317Z,23.80
2023-01-18T12:44:49.508Z,23.80
2023-01-18T12:47:41.071Z,23.80
2023-01-18T12:50:27.696Z,23.90
2023-01-18T12:53:06.807Z,23.90
2023-01-18T12:55:47.421Z,23.90
2023-01-18T12:58:25.936Z,23.80
2023-01-18T13:01:07.613Z,23.80
2023-01-18T13:03:49.901Z,23.80
2023-01-18T13:06:27.694Z,23.80
2023-01-18T13:09:05.376Z,23.80
2023-01-18T13:11:43.507Z,23.90
2023-01-18T13:14:26.510Z,23.80
2023-01-18T13:17:10.659Z,23.80
2023-01-18T13:19:53.140Z,23.80
2023-01-18T13:22:36.703Z,23.70
2023-01-18T13:25:40.105Z,23.70
2023-01-18T13:28:23.605Z,23.70
2023-01-18T13:31:02.324Z,23.70
2023-01-18T13:33:39.557Z,23.70
2023-01-18T13:36:20.286Z,23.70
2023-01-18T13:39:02.864Z,23.70
2023-01-18T13:41:37.974Z,23.70
2023-01-18T13:44:34.286Z,23.70
2023-01-18T13:47:48.396Z,23.70
2023-01-18T13:50:54.000Z,23.80
2023-01-18T13:53:33.036Z,23.80
2023-01-18T13:56:32.933Z,23.80
2023-01-18T13:59:25.413Z,23.80
2023-01-18T14:02:12.488Z,23.80
2023-01-18T14:04:49.947Z,23.70
2023-01-18T14:07:27.543Z,23.70
2023-01-18T14:13:19.386Z,23.80
2023-01-18T14:15:58.067Z,23.70
2023-01-18T14:18:34.959Z,23.70
2023-01-18T14:21:29.345Z,23.60
2023-01-18T14:24:26.666Z,23.70
2023-01-18T14:27:04.039Z,23.80
2023-01-18T14:29:48.705Z,23.70
2023-01-18T14:32:29.048Z,23.80
2023-01-18T14:35:04.899Z,23.80
2023-01-18T14:37:41.416Z,23.80
2023-01-18T14:40:27.977Z,23.90
2023-01-18T14:43:06.461Z,23.80
2023-01-18T14:45:45.788Z,23.90
2023-01-18T14:48:24.512Z,23.80
2023-01-18T14:51:00.856Z,23.70
2023-01-18T14:53:38.711Z,23.80
2023-01-18T14:56:19.728Z,23.70
2023-01-18T14:59:00.096Z,23.70
2023-01-18T15:01:39.615Z,23.70
2023-01-18T15:04:25.541Z,23.70
2023-01-18T15:07:02.977Z,23.70
2023-01-18T15:09:40.932Z,23.70
2023-01-18T15:12:20.832Z,23.80
2023-01-18T15:14:57.215Z,23.70
2023-01-18T15:17:35.325Z,23.70
2023-01-18T15:20:16.582Z,23.70
2023-01-18T15:22:52.716Z,23.70
2023-01-18T15:25:33.028Z,23.70
2023-01-18T15:28:23.018Z,23.60
2023-01-18T15:31:00.984Z,23.60
2023-01-18T15:33:39.835Z,23.60
2023-01-18T15:36:16.971Z,23.60
2023-01-18T15:38:52.132Z,23.60
2023-01-18T15:41:27.789Z,23.60
2023-01-18T15:44:02.832Z,23.60
2023-01-18T15:46:43.141Z,23.60
2023-01-18T15:49:20.696Z,23.60
2023-01-18T15:51:58.640Z,23.60
2023-01-18T15:54:35.590Z,23.50
2023-01-18T15:57:18.176Z,23.60
2023-01-18T15:59:53.962Z,23.60
2023-01-18T16:02:30.242Z,23.60
2023-01-18T16:05:27.110Z,23.60
2023-01-18T16:08:22.715Z,23.50
2023-01-18T16:10:59.461Z,23.50
2023-01-18T16:13:40.329Z,23.50
2023-01-18T16:16:25.798Z,23.50
2023-01-18T16:19:11.943Z,23.50
2023-01-18T16:21:52.819Z,23.60
2023-01-18T16:24:36.594Z,23.50
2023-01-18T16:27:16.579Z,23.60
2023-01-18T16:29:53.916Z,23.50
2023-01-18T16:32:40.312Z,23.50
2023-01-18T16:35:20.019Z,23.50
2023-01-18T16:37:59.467Z,23.60
2023-01-18T16:40:35.428Z,23.60
2023-01-18T16:43:11.907Z,23.60
2023-01-18T16:45:47.544Z,23.60
2023-01-18T16:48:24.540Z,23.70
2023-01-18T16:51:01.440Z,23.60
2023-01-18T16:53:39.311Z,23.60
2023-01-18T16:56:18.429Z,23.60
2023-01-18T16:58:53.899Z,23.60
2023-01-18T17:01:29.747Z,23.60
2023-01-18T17:04:05.477Z,23.60
2023-01-18T17:06:41.258Z,23.50
2023-01-18T17:09:47.121Z,23.60
2023-01-18T17:12:24.044Z,23.50
2023-01-18T17:14:59.475Z,23.50
2023-01-18T17:17:35.330Z,23.50
2023-01-18T17:20:25.121Z,23.50
2023-01-18T17:23:01.094Z,23.50
2023-01-18T17:25:38.613Z,23.50
2023-01-18T17:28:15.871Z,23.50
2023-01-18T17:30:53.475Z,23.50
2023-01-18T17:33:30.030Z,23.50
2023-01-18T17:38:41.355Z,23.50
2023-01-18T17:41:27.749Z,23.50
2023-01-18T17:44:07.752Z,23.50
2023-01-18T17:46:43.169Z,23.50
2023-01-18T17:49:18.956Z,23.50
2023-01-18T17:51:54.540Z,23.50
2023-01-18T17:54:30.781Z,23.50
2023-01-18T17:57:07.961Z,23.50
2023-01-18T18:04:55.979Z,22.90
2023-01-18T18:07:31.474Z,23.10
2023-01-18T18:10:07.954Z,22.80
2023-01-18T18:12:45.221Z,22.50
2023-01-18T18:15:25.089Z,22.30
2023-01-18T18:18:00.328Z,22.20
2023-01-18T18:20:36.066Z,22.10
2023-01-18T18:23:12.115Z,22.10
2023-01-18T18:25:48.479Z,22.00
2023-01-18T18:28:26.574Z,21.90
2023-01-18T18:31:02.846Z,21.90
2023-01-18T18:33:38.071Z,21.90
2023-01-18T18:36:14.013Z,21.80
2023-01-18T18:38:49.499Z,21.70
2023-01-18T18:41:26.038Z,21.70
2023-01-18T18:44:03.236Z,21.70
2023-01-18T18:46:39.165Z,21.60
2023-01-18T18:49:14.807Z,21.60
2023-01-18T18:51:50.558Z,21.40
2023-01-18T18:54:26.164Z,21.30
2023-01-18T18:57:02.431Z,21.30
2023-01-18T18:59:39.797Z,21.40
2023-01-18T19:02:17.957Z,21.40
2023-01-18T19:04:53.450Z,21.40
2023-01-18T19:07:29.585Z,21.40
2023-01-18T19:10:04.809Z,21.40
2023-01-18T19:12:41.362Z,21.40
2023-01-18T19:15:18.795Z,21.40
2023-01-18T19:17:55.729Z,21.40
2023-01-18T19:20:31.101Z,21.40
2023-01-18T19:23:06.924Z,21.40
2023-01-18T19:25:43.828Z,21.30
2023-01-18T19:28:20.084Z,21.30
2023-01-18T19:30:57.771Z,21.20
2023-01-18T19:33:33.595Z,21.20
2023-01-18T19:36:14.039Z,21.10
2023-01-18T19:38:57.686Z,21.10
2023-01-18T19:41:34.961Z,21.10
2023-01-18T19:44:11.534Z,21.20
2023-01-18T19:46:48.863Z,21.20
2023-01-18T19:49:26.787Z,21.20
2023-01-18T19:52:02.079Z,21.30
2023-01-18T19:54:37.605Z,21.30
2023-01-18T19:57:13.018Z,21.30
2023-01-18T19:59:49.222Z,21.30
2023-01-18T20:02:28.434Z,21.30
2023-01-18T20:05:05.199Z,21.40
2023-01-18T20:07:42.474Z,21.40
2023-01-18T20:10:21.766Z,21.40
2023-01-18T20:12:58.322Z,21.40
2023-01-18T20:15:37.513Z,21.30
2023-01-18T20:18:14.669Z,21.40
2023-01-18T20:20:52.779Z,21.30
2023-01-18T20:23:27.790Z,21.20
2023-01-18T20:26:03.448Z,21.20
2023-01-18T20:28:39.428Z,21.20
2023-01-18T20:31:15.766Z,21.20
2023-01-18T20:33:53.138Z,21.20
2023-01-18T20:36:32.105Z,21.20
2023-01-18T20:39:08.815Z,21.10
2023-01-18T20:41:44.783Z,21.20
2023-01-18T20:44:23.815Z,21.10
2023-01-18T20:47:01.081Z,21.00
2023-01-18T20:49:39.461Z,21.00
2023-01-18T20:52:28.190Z,20.90
2023-01-18T20:55:04.406Z,20.90
2023-01-18T20:57:40.255Z,20.90
2023-01-18T21:00:26.876Z,20.90
2023-01-18T21:03:03.712Z,20.80
2023-01-18T21:05:41.959Z,20.80
2023-01-18T21:08:19.298Z,20.80
2023-01-18T21:10:54.644Z,20.80
2023-01-18T21:13:31.640Z,20.80
2023-01-18T21:16:07.699Z,20.80
2023-01-18T21:18:43.888Z,20.70
2023-01-18T21:21:21.132Z,20.70
2023-01-18T21:23:57.074Z,20.60
2023-01-18T21:26:32.568Z,20.60
2023-01-18T21:29:08.622Z,20.60
2023-01-18T21:31:46.963Z,20.70
2023-01-18T21:34:27.565Z,20.70
2023-01-18T21:37:04.630Z,20.70
2023-01-18T21:39:40.306Z,20.80
2023-01-18T21:42:32.304Z,20.70
2023-01-18T21:45:23.221Z,20.60
2023-01-18T21:47:58.811Z,20.60
2023-01-18T21:50:50.588Z,20.60
2023-01-18T21:53:43.801Z,20.50
2023-01-18T21:56:19.395Z,20.30
2023-01-18T21:58:59.660Z,20.20
2023-01-18T22:01:39.408Z,20.10
2023-01-18T22:04:32.240Z,20.00
2023-01-18T22:07:07.781Z,20.20
2023-01-18T22:09:59.034Z,20.10
2023-01-18T22:12:40.589Z,20.10
2023-01-18T22:15:17.313Z,20.10
2023-01-18T22:17:53.332Z,20.10
2023-01-18T22:20:30.272Z,20.00
2023-01-18T22:23:06.623Z,20.10
2023-01-18T22:25:43.517Z,20.10
2023-01-18T22:28:18.996Z,20.10
2023-01-18T22:30:54.014Z,20.20
2023-01-18T22:33:30.242Z,20.20
2023-01-18T22:36:06.274Z,20.20
2023-01-18T22:38:41.754Z,20.20
2023-01-18T22:41:19.883Z,20.20
2023-01-18T22:43:56.003Z,20.30
2023-01-18T22:46:31.565Z,20.20
2023-01-18T22:49:10.513Z,20.30
2023-01-18T22:51:45.730Z,20.50
2023-01-18T22:54:24.176Z,20.60
2023-01-18T22:57:04.375Z,20.60
2023-01-18T22:59:40.937Z,20.60
2023-01-18T23:02:16.508Z,20.60
2023-01-18T23:04:52.964Z,20.50
2023-01-18T23:07:28.281Z,20.60
2023-01-18T23:10:04.617Z,20.60
2023-01-18T23:12:41.738Z,20.70
2023-01-18T23:15:34.390Z,20.70
2023-01-18T23:18:09.734Z,20.70
2023-01-18T23:20:46.306Z,20.70
2023-01-18T23:23:21.713Z,20.80
2023-01-18T23:26:01.072Z,20.70
2023-01-18T23:28:45.087Z,20.70
2023-01-18T23:31:22.166Z,20.70
2023-01-18T23:33:57.553Z,20.80
2023-01-18T23:36:34.261Z,20.80
2023-01-18T23:39:25.170Z,20.70
2023-01-18T23:42:16.439Z,20.80
2023-01-18T23:45:09.237Z,20.70
2023-01-18T23:48:01.458Z,20.80
2023-01-18T23:50:52.821Z,20.80
2023-01-18T23:53:44.783Z,20.90
2023-01-18T23:56:19.962Z,20.90
2023-01-18T23:58:55.020Z,21.00
